Weather History for Marysville, OH

Change the Weather History Date:

Sunday, December 15, 2013

  Actual Average (KDLZ) Record (KDLZ)
Temperature  
Mean Temperature 23 °F -  
Max Temperature 26 °F 40 °F 64 °F (1975)
Min Temperature 19 °F 24 °F -6 °F (1958)
Degree Days  
Heating Degree Days 42    
Moisture  
Dew Point 17 °F    
Average Humidity 79    
Maximum Humidity 94    
Minimum Humidity 67    
Precipitation  
Precipitation 0.00 in - - ()
Sea Level Pressure  
Sea Level Pressure 29.95 in    
Wind  
Wind Speed 12 mph (West)    
Max Wind Speed 23 mph    
Max Gust Speed 31 mph    
Visibility 9 miles    
Events      
Averages and records for this station are not official NWS values.
T = Trace of Precipitation, MM = Missing Value Source: NWS Daily Summary

Daily Weather History Graph

Daily Weather History Graph

Search for Another Location

Airport:

Trip Planner

Search our weather history database for the weather conditions in past years. The results will help you decide how hot, cold, wet, or windy it might be!

Date:

Astronomy

Dec. 15, 2013 Rise Set
Actual Time 7:48 AM EST 5:08 PM EST
Civil Twilight 7:18 AM EST 5:39 PM EST
Nautical Twilight 6:44 AM EST 6:13 PM EST
Astronomical Twilight 6:11 AM EST 6:46 PM EST
Moon 4:12 PM EST (12/15) 6:04 AM EST (12/15)
Length of Visible Light 10h 20m
Length of Day
9h 19m
Waxing Gibbous, 97% of the Moon is Illuminated
Dec 15
Waxing Gibbous
Dec 17
Full
Dec 25
Last Quarter
Jan 1
New
Jan 7
First Quarter

Hourly Weather History & Observations

Time (EST) Temp. Windchill Dew Point Humidity Pressure Visibility Wind Dir Wind Speed Gust Speed Precip Events Conditions
12:14 AM 27.3 °F 18.4 °F 25.9 °F 94% 29.78 in 5.0 mi NW 9.2 mph 18.4 mph N/A   Overcast
12:35 AM 26.6 °F 16.8 °F 25.2 °F 94% 29.79 in 4.0 mi NNW 10.4 mph - N/A   Overcast
12:54 AM 25.7 °F 15.1 °F 24.1 °F 94% 29.80 in 4.0 mi WNW 11.5 mph 16.1 mph N/A   Overcast
1:14 AM 24.8 °F 13.4 °F 22.3 °F 90% 29.80 in 7.0 mi NW 12.7 mph 18.4 mph N/A   Overcast
1:35 AM 24.6 °F 14.4 °F 21.9 °F 89% 29.81 in 10.0 mi WNW 10.4 mph - N/A   Overcast
1:54 AM 23.9 °F 13.5 °F 21.2 °F 89% 29.82 in 7.0 mi NW 10.4 mph - N/A   Overcast
2:14 AM 23.7 °F 14.7 °F 21.2 °F 90% 29.83 in 10.0 mi NW 8.1 mph - N/A   Overcast
2:34 AM 23.7 °F 11.5 °F 21.2 °F 90% 29.84 in 10.0 mi NW 13.8 mph 17.3 mph N/A   Overcast
2:54 AM 23.7 °F 12.1 °F 21.0 °F 89% 29.84 in 10.0 mi WNW 12.7 mph - N/A   Overcast
3:14 AM 23.7 °F 12.1 °F 21.0 °F 89% 29.85 in 10.0 mi WNW 12.7 mph - N/A   Overcast
3:34 AM 23.9 °F 11.2 °F 21.2 °F 89% 29.86 in 7.0 mi WNW 15.0 mph 18.4 mph N/A   Overcast
3:54 AM 23.7 °F 11.5 °F 20.7 °F 88% 29.87 in 10.0 mi WNW 13.8 mph - N/A   Overcast
4:14 AM 23.5 °F 13.0 °F 20.5 °F 88% 29.88 in 7.0 mi WNW 10.4 mph 16.1 mph N/A   Overcast
4:34 AM 23.0 °F 10.6 °F 19.8 °F 87% 29.89 in 10.0 mi WNW 13.8 mph 19.6 mph N/A   Overcast
4:54 AM 23.0 °F 11.7 °F 19.4 °F 86% 29.90 in 10.0 mi WNW 11.5 mph 17.3 mph N/A   Overcast
5:14 AM 22.8 °F 12.9 °F 19.4 °F 87% 29.90 in 7.0 mi WNW 9.2 mph 17.3 mph N/A   Overcast
5:34 AM 22.6 °F 11.3 °F 19.4 °F 87% 29.90 in 7.0 mi WNW 11.5 mph 17.3 mph N/A   Overcast
5:54 AM 22.8 °F 14.5 °F 19.9 °F 89% 29.90 in 7.0 mi WNW 6.9 mph - N/A   Overcast
6:14 AM 22.8 °F 14.5 °F 20.1 °F 89% 29.90 in 7.0 mi WNW 6.9 mph - N/A   Overcast
6:34 AM 23.0 °F 14.7 °F 20.3 °F 89% 29.91 in 7.0 mi West 6.9 mph - N/A   Overcast
6:54 AM 23.4 °F 14.3 °F 20.8 °F 90% 29.92 in 4.0 mi West 8.1 mph - N/A   Overcast
7:14 AM 23.7 °F 15.6 °F 21.2 °F 90% 29.92 in 5.0 mi West 6.9 mph - N/A   Overcast
7:34 AM 23.9 °F 14.2 °F 21.6 °F 91% 29.92 in 4.0 mi West 9.2 mph - N/A   Overcast
7:54 AM 24.3 °F 16.3 °F 21.9 °F 91% 29.92 in 4.0 mi West 6.9 mph - N/A   Overcast
8:14 AM 24.8 °F 16.9 °F 22.5 °F 91% 29.92 in 4.0 mi West 6.9 mph - N/A   Overcast
8:34 AM 25.7 °F 16.4 °F 23.0 °F 89% 29.92 in 7.0 mi West 9.2 mph - N/A   Overcast
8:54 AM 26.2 °F 15.8 °F 22.8 °F 87% 29.93 in 7.0 mi West 11.5 mph - N/A   Overcast
9:14 AM 26.6 °F 15.2 °F 22.1 °F 83% 29.93 in 7.0 mi West 13.8 mph 18.4 mph N/A   Overcast
9:34 AM 26.6 °F 14.3 °F 22.1 °F 83% 29.93 in 7.0 mi West 16.1 mph 23.0 mph N/A   Overcast
9:54 AM 26.6 °F 13.8 °F 21.4 °F 81% 29.94 in 10.0 mi West 17.3 mph 21.9 mph N/A   Overcast
10:14 AM 26.2 °F 14.2 °F 20.5 °F 79% 29.95 in 10.0 mi West 15.0 mph - N/A   Overcast
10:34 AM 25.5 °F 13.3 °F 20.3 °F 81% 29.95 in 10.0 mi West 15.0 mph 26.5 mph N/A   Overcast
10:54 AM 25.3 °F 11.4 °F 20.1 °F 81% 29.96 in 10.0 mi West 19.6 mph 25.3 mph N/A   Overcast
11:14 AM 24.3 °F 9.6 °F 19.0 °F 80% 29.96 in 4.0 mi West 20.7 mph 31.1 mph N/A   Overcast
11:34 AM 25.2 °F 12.4 °F 19.2 °F 78% 29.94 in 7.0 mi West 16.1 mph 21.9 mph N/A   Overcast
11:54 AM 25.2 °F 11.6 °F 19.4 °F 79% 29.93 in 7.0 mi WSW 18.4 mph 23.0 mph N/A   Overcast
12:14 PM 25.3 °F 11.4 °F 18.5 °F 75% 29.93 in 10.0 mi West 19.6 mph 28.8 mph N/A   Overcast
12:34 PM 25.3 °F 12.2 °F 18.7 °F 76% 29.92 in 10.0 mi West 17.3 mph 27.6 mph N/A   Overcast
12:54 PM 25.3 °F 13.1 °F 18.5 °F 75% 29.91 in 10.0 mi West 15.0 mph 28.8 mph N/A   Overcast
1:15 PM 24.1 °F 9.8 °F 17.4 °F 76% 29.92 in 10.0 mi West 19.6 mph 27.6 mph N/A   Mostly Cloudy
1:34 PM 24.6 °F 9.4 °F 17.2 °F 74% 29.93 in 10.0 mi West 23.0 mph 31.1 mph N/A   Overcast
1:54 PM 24.6 °F 10.5 °F 16.3 °F 71% 29.93 in 10.0 mi West 19.6 mph 28.8 mph N/A   Overcast
2:15 PM 23.7 °F 9.3 °F 14.7 °F 69% 29.93 in 10.0 mi West 19.6 mph 29.9 mph N/A   Overcast
2:34 PM 22.8 °F 7.4 °F 13.5 °F 67% 29.93 in 10.0 mi WNW 21.9 mph 29.9 mph N/A   Overcast
2:54 PM 21.9 °F 5.8 °F 13.1 °F 69% 29.95 in 10.0 mi West 23.0 mph 29.9 mph N/A   Overcast
3:15 PM 20.8 °F 4.4 °F 12.0 °F 69% 29.96 in 10.0 mi West 23.0 mph 27.6 mph N/A   Overcast
3:34 PM 20.1 °F 4.6 °F 11.3 °F 69% 29.96 in 10.0 mi WNW 19.6 mph 25.3 mph N/A   Overcast
3:54 PM 19.8 °F 3.7 °F 11.3 °F 70% 29.98 in 10.0 mi West 20.7 mph 25.3 mph N/A   Overcast
4:15 PM 19.4 °F 5.0 °F 11.5 °F 71% 29.99 in 10.0 mi WNW 16.1 mph - N/A   Overcast
4:34 PM 19.4 °F 3.6 °F 11.8 °F 72% 29.99 in 10.0 mi West 19.6 mph 24.2 mph N/A   Overcast
4:54 PM 19.4 °F 5.5 °F 11.7 °F 72% 30.00 in 10.0 mi West 15.0 mph - N/A   Overcast
5:15 PM 19.6 °F 6.8 °F 11.8 °F 72% 30.00 in 10.0 mi West 12.7 mph - N/A   Overcast
5:34 PM 19.8 °F 7.1 °F 12.2 °F 72% 30.00 in 10.0 mi West 12.7 mph - N/A   Overcast
5:54 PM 20.1 °F 9.5 °F 12.7 °F 73% 30.01 in 10.0 mi West 9.2 mph - N/A   Overcast
6:15 PM 20.3 °F 7.7 °F 12.9 °F 73% 30.01 in 10.0 mi West 12.7 mph 18.4 mph N/A   Overcast
6:34 PM 20.3 °F 5.7 °F 11.5 °F 69% 30.02 in 10.0 mi West 17.3 mph 20.7 mph N/A   Overcast
6:54 PM 20.1 °F 8.1 °F 11.3 °F 69% 30.03 in 10.0 mi West 11.5 mph - N/A   Overcast
7:14 PM 20.3 °F 9.0 °F 12.0 °F 70% 30.03 in 10.0 mi West 10.4 mph - N/A   Overcast
7:34 PM 20.3 °F 9.0 °F 12.4 °F 71% 30.03 in 10.0 mi West 10.4 mph - N/A   Overcast
7:54 PM 20.7 °F 8.8 °F 12.2 °F 70% 30.04 in 10.0 mi West 11.5 mph - N/A   Overcast
8:14 PM 20.8 °F 9.0 °F 12.2 °F 69% 30.05 in 10.0 mi West 11.5 mph 16.1 mph N/A   Overcast
8:34 PM 20.8 °F 9.0 °F 12.0 °F 69% 30.05 in 10.0 mi West 11.5 mph - N/A   Overcast
8:54 PM 20.8 °F 7.9 °F 12.0 °F 69% 30.05 in 10.0 mi West 13.8 mph - N/A   Overcast
9:14 PM 20.8 °F 7.9 °F 12.2 °F 69% 30.05 in 10.0 mi West 13.8 mph - N/A   Overcast
9:34 PM 20.7 °F 8.2 °F 12.4 °F 70% 30.06 in 10.0 mi WNW 12.7 mph - N/A   Overcast
9:54 PM 20.7 °F 8.2 °F 12.7 °F 71% 30.06 in 10.0 mi West 12.7 mph - N/A   Overcast
10:14 PM 20.8 °F 9.0 °F 12.6 °F 70% 30.07 in 10.0 mi West 11.5 mph 18.4 mph N/A   Overcast
10:34 PM 20.8 °F 10.4 °F 12.7 °F 71% 30.07 in 10.0 mi WNW 9.2 mph - N/A   Overcast
10:54 PM 20.8 °F 10.4 °F 12.7 °F 71% 30.07 in 10.0 mi West 9.2 mph - N/A   Overcast
11:14 PM 21.0 °F 10.6 °F 13.1 °F 71% 30.07 in 10.0 mi West 9.2 mph - N/A   Overcast
11:34 PM 21.0 °F 10.6 °F 13.1 °F 71% 30.07 in 10.0 mi West 9.2 mph - N/A   Overcast
11:54 PM 21.2 °F 9.5 °F 12.9 °F 70% 30.08 in 10.0 mi West 11.5 mph - N/A   Overcast